Terminal Aerodrome Forecast
Issued by NWS

Current Version | Previous Version | Text Only | Print | Product List | Glossary Off
Versions: 1 2 3 4 5 6 7 8 9 10 11 12 13 14 15 16 17 18 19 20 21 22 23 24

000
FTUS41 KRLX 280903 AAA
TAFCKB
TAF AMD
KCKB 280903Z 2809/2906 00000KT 6SM -RA VCSH OVC080
     FM281000 VRB03KT 4SM -SHRA BR OVC022
     FM281200 VRB03KT 4SM -SHRA BR OVC013
     FM281700 19007KT P6SM VCSH BKN015
     FM282000 23007KT 3SM SHRA VCTS BKN018CB
     FM282300 VRB03KT P6SM VCSH BKN022
     FM290500 00000KT P6SM BKN030=

USA.gov is the U.S. government's official web portal to all federal, state and local government web resources and services.